sensor_id;sensor_type;location;lat;lon;timestamp;pressure;altitude;pressure_sealevel;temperature;humidity
19236;BME280;9752;54.270;12.470;2024-03-02T00:03:21;101355.41;;;4.74;100.00
19236;BME280;9752;54.270;12.470;2024-03-02T00:08:24;101359.50;;;4.72;100.00
19236;BME280;9752;54.270;12.470;2024-03-02T00:13:27;101365.84;;;4.76;100.00
19236;BME280;9752;54.270;12.470;2024-03-02T00:18:32;101368.25;;;4.74;100.00
19236;BME280;9752;54.270;12.470;2024-03-02T00:23:35;101366.50;;;4.64;100.00
19236;BME280;9752;54.270;12.470;2024-03-02T00:28:37;101371.97;;;4.59;100.00
19236;BME280;9752;54.270;12.470;2024-03-02T00:33:41;101383.19;;;4.59;100.00
19236;BME280;9752;54.270;12.470;2024-03-02T00:38:46;101386.66;;;4.60;100.00
19236;BME280;9752;54.270;12.470;2024-03-02T00:43:53;101390.84;;;4.87;100.00
19236;BME280;9752;54.270;12.470;2024-03-02T00:49:00;101396.38;;;5.00;100.00
19236;BME280;9752;54.270;12.470;2024-03-02T00:54:04;101396.22;;;4.99;100.00
19236;BME280;9752;54.270;12.470;2024-03-02T00:59:06;101395.63;;;5.01;100.00
19236;BME280;9752;54.270;12.470;2024-03-02T01:04:10;101397.16;;;4.99;100.00
19236;BME280;9752;54.270;12.470;2024-03-02T01:09:12;101400.47;;;4.98;100.00
19236;BME280;9752;54.270;12.470;2024-03-02T01:14:14;101408.72;;;5.04;100.00
19236;BME280;9752;54.270;12.470;2024-03-02T01:19:17;101414.31;;;5.09;100.00
19236;BME280;9752;54.270;12.470;2024-03-02T01:24:19;101419.13;;;5.15;100.00
19236;BME280;9752;54.270;12.470;2024-03-02T01:29:20;101422.72;;;5.17;100.00
19236;BME280;9752;54.270;12.470;2024-03-02T01:34:24;101422.19;;;5.11;100.00
19236;BME280;9752;54.270;12.470;2024-03-02T01:39:25;101414.91;;;5.06;100.00
19236;BME280;9752;54.270;12.470;2024-03-02T01:44:27;101410.38;;;5.13;100.00
19236;BME280;9752;54.270;12.470;2024-03-02T01:49:30;101412.75;;;5.20;100.00
19236;BME280;9752;54.270;12.470;2024-03-02T01:54:33;101411.22;;;5.22;100.00
19236;BME280;9752;54.270;12.470;2024-03-02T01:59:34;101411.47;;;5.25;100.00
19236;BME280;9752;54.270;12.470;2024-03-02T02:04:37;101414.59;;;5.31;100.00
19236;BME280;9752;54.270;12.470;2024-03-02T02:09:40;101412.31;;;5.34;100.00
19236;BME280;9752;54.270;12.470;2024-03-02T02:14:47;101407.84;;;5.42;100.00
19236;BME280;9752;54.270;12.470;2024-03-02T02:19:50;101409.81;;;5.44;100.00
19236;BME280;9752;54.270;12.470;2024-03-02T02:24:53;101400.97;;;5.51;100.00
19236;BME280;9752;54.270;12.470;2024-03-02T02:29:55;101408.34;;;5.57;100.00
19236;BME280;9752;54.270;12.470;2024-03-02T02:34:56;101411.66;;;5.56;100.00
19236;BME280;9752;54.270;12.470;2024-03-02T02:40:00;101409.59;;;5.52;100.00
19236;BME280;9752;54.270;12.470;2024-03-02T02:45:02;101413.44;;;5.46;100.00
19236;BME280;9752;54.270;12.470;2024-03-02T02:50:06;101411.06;;;5.39;100.00
19236;BME280;9752;54.270;12.470;2024-03-02T02:55:11;101401.53;;;5.38;100.00
19236;BME280;9752;54.270;12.470;2024-03-02T03:00:15;101403.50;;;5.41;100.00
19236;BME280;9752;54.270;12.470;2024-03-02T03:05:19;101408.50;;;5.39;100.00
19236;BME280;9752;54.270;12.470;2024-03-02T03:10:22;101406.97;;;5.41;100.00
19236;BME280;9752;54.270;12.470;2024-03-02T03:15:26;101412.09;;;5.41;100.00
19236;BME280;9752;54.270;12.470;2024-03-02T03:20:28;101416.22;;;5.39;100.00
19236;BME280;9752;54.270;12.470;2024-03-02T03:25:31;101412.59;;;5.37;100.00
19236;BME280;9752;54.270;12.470;2024-03-02T03:30:32;101418.16;;;5.42;100.00
19236;BME280;9752;54.270;12.470;2024-03-02T03:35:35;101423.84;;;5.48;100.00
19236;BME280;9752;54.270;12.470;2024-03-02T03:40:39;101429.22;;;5.60;100.00
19236;BME280;9752;54.270;12.470;2024-03-02T03:45:41;101434.91;;;5.66;100.00
19236;BME280;9752;54.270;12.470;2024-03-02T03:50:42;101440.09;;;5.76;100.00
19236;BME280;9752;54.270;12.470;2024-03-02T03:55:45;101451.88;;;5.83;100.00
19236;BME280;9752;54.270;12.470;2024-03-02T04:00:49;101453.31;;;5.90;100.00
19236;BME280;9752;54.270;12.470;2024-03-02T04:05:51;101474.19;;;5.93;100.00
19236;BME280;9752;54.270;12.470;2024-03-02T04:10:54;101473.28;;;5.92;100.00
19236;BME280;9752;54.270;12.470;2024-03-02T04:15:56;101471.16;;;5.97;100.00
19236;BME280;9752;54.270;12.470;2024-03-02T04:20:57;101482.13;;;6.04;100.00
19236;BME280;9752;54.270;12.470;2024-03-02T04:26:01;101488.25;;;6.15;100.00
19236;BME280;9752;54.270;12.470;2024-03-02T04:31:03;101485.91;;;6.18;100.00
19236;BME280;9752;54.270;12.470;2024-03-02T04:36:04;101491.88;;;6.28;100.00
19236;BME280;9752;54.270;12.470;2024-03-02T04:41:10;101502.19;;;6.28;100.00
19236;BME280;9752;54.270;12.470;2024-03-02T04:46:11;101506.47;;;6.37;100.00
19236;BME280;9752;54.270;12.470;2024-03-02T04:51:13;101510.00;;;6.38;100.00
19236;BME280;9752;54.270;12.470;2024-03-02T04:56:16;101509.22;;;6.39;100.00
19236;BME280;9752;54.270;12.470;2024-03-02T05:01:44;101514.28;;;6.48;100.00
19236;BME280;9752;54.270;12.470;2024-03-02T05:06:46;101515.16;;;6.48;100.00
19236;BME280;9752;54.270;12.470;2024-03-02T05:11:54;101515.72;;;6.54;100.00
19236;BME280;9752;54.270;12.470;2024-03-02T05:17:16;101523.44;;;6.54;100.00
19236;BME280;9752;54.270;12.470;2024-03-02T05:22:18;101517.25;;;6.52;100.00
19236;BME280;9752;54.270;12.470;2024-03-02T05:27:21;101518.56;;;6.57;100.00
19236;BME280;9752;54.270;12.470;2024-03-02T05:32:22;101513.13;;;6.54;100.00
19236;BME280;9752;54.270;12.470;2024-03-02T05:37:24;101517.81;;;6.58;100.00
19236;BME280;9752;54.270;12.470;2024-03-02T05:42:27;101521.13;;;6.57;100.00
19236;BME280;9752;54.270;12.470;2024-03-02T05:47:28;101520.50;;;6.60;100.00
19236;BME280;9752;54.270;12.470;2024-03-02T05:52:30;101525.28;;;6.65;100.00
19236;BME280;9752;54.270;12.470;2024-03-02T05:57:33;101531.75;;;6.71;100.00
19236;BME280;9752;54.270;12.470;2024-03-02T06:02:47;101530.19;;;6.62;100.00
19236;BME280;9752;54.270;12.470;2024-03-02T06:07:49;101534.84;;;6.67;100.00
19236;BME280;9752;54.270;12.470;2024-03-02T06:12:52;101543.47;;;6.67;100.00
19236;BME280;9752;54.270;12.470;2024-03-02T06:17:54;101549.94;;;6.72;100.00
19236;BME280;9752;54.270;12.470;2024-03-02T06:22:55;101565.28;;;6.71;100.00
19236;BME280;9752;54.270;12.470;2024-03-02T06:27:58;101564.97;;;6.68;100.00
19236;BME280;9752;54.270;12.470;2024-03-02T06:33:00;101569.16;;;6.76;100.00
19236;BME280;9752;54.270;12.470;2024-03-02T06:38:02;101561.69;;;6.79;100.00
19236;BME280;9752;54.270;12.470;2024-03-02T06:43:05;101560.03;;;6.90;100.00
19236;BME280;9752;54.270;12.470;2024-03-02T06:48:07;101569.47;;;6.99;100.00
19236;BME280;9752;54.270;12.470;2024-03-02T06:53:08;101570.38;;;7.00;100.00
19236;BME280;9752;54.270;12.470;2024-03-02T06:58:12;101578.00;;;6.98;100.00
19236;BME280;9752;54.270;12.470;2024-03-02T07:03:13;101587.53;;;6.99;100.00
19236;BME280;9752;54.270;12.470;2024-03-02T07:08:15;101581.63;;;7.00;100.00
19236;BME280;9752;54.270;12.470;2024-03-02T07:13:18;101587.22;;;7.15;100.00
19236;BME280;9752;54.270;12.470;2024-03-02T07:18:20;101573.91;;;7.11;100.00
19236;BME280;9752;54.270;12.470;2024-03-02T07:23:22;101578.97;;;7.19;100.00
19236;BME280;9752;54.270;12.470;2024-03-02T07:28:28;101579.94;;;7.11;100.00
19236;BME280;9752;54.270;12.470;2024-03-02T07:33:30;101583.59;;;7.23;100.00
19236;BME280;9752;54.270;12.470;2024-03-02T07:38:32;101592.75;;;7.30;100.00
19236;BME280;9752;54.270;12.470;2024-03-02T07:43:36;101596.69;;;7.46;100.00
19236;BME280;9752;54.270;12.470;2024-03-02T07:48:38;101600.78;;;7.43;100.00
19236;BME280;9752;54.270;12.470;2024-03-02T07:53:40;101604.06;;;7.51;100.00
19236;BME280;9752;54.270;12.470;2024-03-02T07:58:43;101604.69;;;7.59;100.00
19236;BME280;9752;54.270;12.470;2024-03-02T08:03:46;101595.66;;;7.54;100.00
19236;BME280;9752;54.270;12.470;2024-03-02T08:08:50;101590.75;;;7.67;100.00
19236;BME280;9752;54.270;12.470;2024-03-02T08:13:53;101594.50;;;7.81;100.00
19236;BME280;9752;54.270;12.470;2024-03-02T08:18:56;101592.03;;;7.93;100.00
19236;BME280;9752;54.270;12.470;2024-03-02T08:23:58;101601.34;;;8.01;100.00
19236;BME280;9752;54.270;12.470;2024-03-02T08:29:01;101590.88;;;7.89;100.00
19236;BME280;9752;54.270;12.470;2024-03-02T08:34:03;101590.22;;;7.92;100.00
19236;BME280;9752;54.270;12.470;2024-03-02T08:39:05;101594.88;;;7.96;100.00
19236;BME280;9752;54.270;12.470;2024-03-02T08:44:16;101592.78;;;8.02;100.00
19236;BME280;9752;54.270;12.470;2024-03-02T08:49:18;101587.22;;;8.18;100.00
19236;BME280;9752;54.270;12.470;2024-03-02T08:54:20;101591.69;;;8.51;100.00
19236;BME280;9752;54.270;12.470;2024-03-02T08:59:23;101593.13;;;8.80;100.00
19236;BME280;9752;54.270;12.470;2024-03-02T09:04:28;101590.25;;;8.87;100.00
19236;BME280;9752;54.270;12.470;2024-03-02T09:09:30;101602.25;;;9.19;100.00
19236;BME280;9752;54.270;12.470;2024-03-02T09:14:34;101591.53;;;9.36;100.00
19236;BME280;9752;54.270;12.470;2024-03-02T09:19:37;101580.63;;;9.41;100.00
19236;BME280;9752;54.270;12.470;2024-03-02T09:24:38;101574.72;;;9.31;100.00
19236;BME280;9752;54.270;12.470;2024-03-02T09:29:41;101568.13;;;9.13;100.00
19236;BME280;9752;54.270;12.470;2024-03-02T09:34:43;101558.50;;;9.22;100.00
19236;BME280;9752;54.270;12.470;2024-03-02T09:39:45;101537.03;;;9.01;100.00
19236;BME280;9752;54.270;12.470;2024-03-02T09:44:48;101534.97;;;9.19;100.00
19236;BME280;9752;54.270;12.470;2024-03-02T09:49:50;101541.47;;;9.48;100.00
19236;BME280;9752;54.270;12.470;2024-03-02T09:54:51;101532.97;;;9.72;100.00
19236;BME280;9752;54.270;12.470;2024-03-02T09:59:54;101526.91;;;9.72;100.00
19236;BME280;9752;54.270;12.470;2024-03-02T10:04:56;101522.78;;;9.52;100.00
19236;BME280;9752;54.270;12.470;2024-03-02T10:09:58;101490.56;;;9.36;100.00
19236;BME280;9752;54.270;12.470;2024-03-02T10:15:04;101476.69;;;9.24;100.00
19236;BME280;9752;54.270;12.470;2024-03-02T10:20:21;101474.00;;;9.34;100.00
19236;BME280;9752;54.270;12.470;2024-03-02T10:25:31;101472.66;;;9.40;100.00
19236;BME280;9752;54.270;12.470;2024-03-02T10:30:35;101473.22;;;9.35;100.00
19236;BME280;9752;54.270;12.470;2024-03-02T10:35:38;101471.50;;;9.24;100.00
19236;BME280;9752;54.270;12.470;2024-03-02T10:40:40;101470.69;;;9.13;100.00
19236;BME280;9752;54.270;12.470;2024-03-02T10:45:45;101465.06;;;9.19;100.00
19236;BME280;9752;54.270;12.470;2024-03-02T10:50:49;101466.22;;;9.23;100.00
19236;BME280;9752;54.270;12.470;2024-03-02T10:55:56;101464.97;;;9.29;100.00
19236;BME280;9752;54.270;12.470;2024-03-02T11:01:02;101457.63;;;9.12;100.00
19236;BME280;9752;54.270;12.470;2024-03-02T11:06:07;101454.97;;;9.22;100.00
19236;BME280;9752;54.270;12.470;2024-03-02T11:11:15;101456.75;;;9.23;100.00
19236;BME280;9752;54.270;12.470;2024-03-02T11:16:29;101471.16;;;9.31;100.00
19236;BME280;9752;54.270;12.470;2024-03-02T11:21:35;101463.31;;;9.30;100.00
19236;BME280;9752;54.270;12.470;2024-03-02T11:26:38;101458.84;;;9.51;100.00
19236;BME280;9752;54.270;12.470;2024-03-02T11:32:12;101454.88;;;9.56;100.00
19236;BME280;9752;54.270;12.470;2024-03-02T11:37:15;101440.94;;;10.01;100.00
19236;BME280;9752;54.270;12.470;2024-03-02T11:42:17;101453.00;;;10.73;100.00
19236;BME280;9752;54.270;12.470;2024-03-02T11:47:21;101446.44;;;10.53;100.00
19236;BME280;9752;54.270;12.470;2024-03-02T11:52:23;101434.34;;;10.30;100.00
19236;BME280;9752;54.270;12.470;2024-03-02T11:57:25;101427.06;;;10.73;100.00
19236;BME280;9752;54.270;12.470;2024-03-02T12:02:34;101402.41;;;10.54;100.00
19236;BME280;9752;54.270;12.470;2024-03-02T12:07:36;101325.72;;;10.97;100.00
19236;BME280;9752;54.270;12.470;2024-03-02T12:12:37;101305.97;;;11.12;100.00
19236;BME280;9752;54.270;12.470;2024-03-02T12:17:40;101279.19;;;11.40;100.00
19236;BME280;9752;54.270;12.470;2024-03-02T12:22:43;101192.41;;;11.23;100.00
19236;BME280;9752;54.270;12.470;2024-03-02T12:27:46;101180.97;;;10.92;100.00
19236;BME280;9752;54.270;12.470;2024-03-02T12:32:50;101175.56;;;11.03;100.00
19236;BME280;9752;54.270;12.470;2024-03-02T12:37:53;101172.97;;;11.16;100.00
19236;BME280;9752;54.270;12.470;2024-03-02T12:42:55;101168.09;;;11.49;100.00
19236;BME280;9752;54.270;12.470;2024-03-02T12:47:59;101155.03;;;12.19;100.00
19236;BME280;9752;54.270;12.470;2024-03-02T12:53:01;101142.47;;;12.71;100.00
19236;BME280;9752;54.270;12.470;2024-03-02T12:58:03;101135.50;;;13.18;100.00
19236;BME280;9752;54.270;12.470;2024-03-02T13:03:06;101119.78;;;13.00;100.00
19236;BME280;9752;54.270;12.470;2024-03-02T13:08:08;101106.75;;;12.54;100.00
19236;BME280;9752;54.270;12.470;2024-03-02T13:13:10;101098.16;;;12.55;100.00
19236;BME280;9752;54.270;12.470;2024-03-02T13:18:13;101086.44;;;12.32;100.00
19236;BME280;9752;54.270;12.470;2024-03-02T13:23:15;101084.97;;;12.52;100.00
19236;BME280;9752;54.270;12.470;2024-03-02T13:28:17;101076.13;;;12.33;100.00
19236;BME280;9752;54.270;12.470;2024-03-02T13:33:20;101077.56;;;12.28;100.00
19236;BME280;9752;54.270;12.470;2024-03-02T13:38:22;101084.28;;;12.24;100.00
19236;BME280;9752;54.270;12.470;2024-03-02T13:43:24;101082.41;;;11.92;100.00
19236;BME280;9752;54.270;12.470;2024-03-02T13:48:28;101078.50;;;11.85;100.00
19236;BME280;9752;54.270;12.470;2024-03-02T13:53:31;101069.78;;;11.70;100.00
19236;BME280;9752;54.270;12.470;2024-03-02T13:58:32;101071.06;;;11.77;100.00
19236;BME280;9752;54.270;12.470;2024-03-02T14:03:35;101071.19;;;12.08;100.00
19236;BME280;9752;54.270;12.470;2024-03-02T14:08:37;101070.66;;;12.14;100.00
19236;BME280;9752;54.270;12.470;2024-03-02T14:13:39;101067.34;;;12.01;100.00
19236;BME280;9752;54.270;12.470;2024-03-02T14:18:42;101075.78;;;11.97;100.00
19236;BME280;9752;54.270;12.470;2024-03-02T14:23:43;101068.78;;;11.96;100.00
19236;BME280;9752;54.270;12.470;2024-03-02T14:28:45;101063.47;;;12.09;100.00
19236;BME280;9752;54.270;12.470;2024-03-02T14:33:48;101063.38;;;11.93;100.00
19236;BME280;9752;54.270;12.470;2024-03-02T14:38:50;101058.50;;;11.69;100.00
19236;BME280;9752;54.270;12.470;2024-03-02T14:43:51;101054.16;;;11.55;100.00
19236;BME280;9752;54.270;12.470;2024-03-02T14:48:54;101048.13;;;11.41;100.00
19236;BME280;9752;54.270;12.470;2024-03-02T14:53:56;101048.59;;;11.49;100.00
19236;BME280;9752;54.270;12.470;2024-03-02T14:58:58;101055.31;;;11.45;100.00
19236;BME280;9752;54.270;12.470;2024-03-02T15:04:01;101048.03;;;11.40;100.00
19236;BME280;9752;54.270;12.470;2024-03-02T15:09:03;101050.84;;;11.43;100.00
19236;BME280;9752;54.270;12.470;2024-03-02T15:14:05;101056.97;;;11.30;100.00
19236;BME280;9752;54.270;12.470;2024-03-02T15:19:08;101058.72;;;11.16;100.00
19236;BME280;9752;54.270;12.470;2024-03-02T15:24:10;101062.94;;;11.14;100.00
19236;BME280;9752;54.270;12.470;2024-03-02T15:29:11;101066.56;;;11.03;100.00
19236;BME280;9752;54.270;12.470;2024-03-02T15:34:14;101067.00;;;10.82;100.00
19236;BME280;9752;54.270;12.470;2024-03-02T15:39:16;101070.09;;;10.77;100.00
19236;BME280;9752;54.270;12.470;2024-03-02T15:44:18;101077.78;;;10.75;100.00
19236;BME280;9752;54.270;12.470;2024-03-02T15:49:21;101078.19;;;10.68;100.00
19236;BME280;9752;54.270;12.470;2024-03-02T15:54:23;101087.06;;;10.58;100.00
19236;BME280;9752;54.270;12.470;2024-03-02T15:59:24;101076.31;;;10.39;100.00
19236;BME280;9752;54.270;12.470;2024-03-02T16:04:27;101086.75;;;10.27;100.00
19236;BME280;9752;54.270;12.470;2024-03-02T16:09:29;101088.72;;;10.18;100.00
19236;BME280;9752;54.270;12.470;2024-03-02T16:14:31;101098.28;;;10.19;100.00
19236;BME280;9752;54.270;12.470;2024-03-02T16:19:34;101103.38;;;10.04;100.00
19236;BME280;9752;54.270;12.470;2024-03-02T16:24:39;101114.69;;;9.92;100.00
19236;BME280;9752;54.270;12.470;2024-03-02T16:29:41;101121.13;;;9.86;100.00
19236;BME280;9752;54.270;12.470;2024-03-02T16:34:44;101133.25;;;9.73;100.00
19236;BME280;9752;54.270;12.470;2024-03-02T16:39:45;101147.28;;;9.64;100.00
19236;BME280;9752;54.270;12.470;2024-03-02T16:44:48;101150.22;;;9.56;100.00
19236;BME280;9752;54.270;12.470;2024-03-02T16:49:55;101161.06;;;9.51;100.00
19236;BME280;9752;54.270;12.470;2024-03-02T16:54:58;101178.88;;;9.34;100.00
19236;BME280;9752;54.270;12.470;2024-03-02T16:59:59;101177.53;;;9.16;100.00
19236;BME280;9752;54.270;12.470;2024-03-02T17:05:03;101180.59;;;8.98;100.00
19236;BME280;9752;54.270;12.470;2024-03-02T17:10:05;101189.16;;;8.86;100.00
19236;BME280;9752;54.270;12.470;2024-03-02T17:15:08;101192.09;;;8.78;100.00
19236;BME280;9752;54.270;12.470;2024-03-02T17:20:11;101195.66;;;8.69;100.00
19236;BME280;9752;54.270;12.470;2024-03-02T17:25:15;101207.94;;;8.59;100.00
19236;BME280;9752;54.270;12.470;2024-03-02T17:30:17;101213.13;;;8.59;100.00
19236;BME280;9752;54.270;12.470;2024-03-02T17:35:22;101240.31;;;8.54;100.00
19236;BME280;9752;54.270;12.470;2024-03-02T17:40:24;101248.25;;;8.46;100.00
19236;BME280;9752;54.270;12.470;2024-03-02T17:45:25;101253.13;;;8.31;100.00
19236;BME280;9752;54.270;12.470;2024-03-02T17:50:29;101266.97;;;8.09;100.00
19236;BME280;9752;54.270;12.470;2024-03-02T17:55:31;101275.34;;;7.95;100.00
19236;BME280;9752;54.270;12.470;2024-03-02T18:00:33;101274.78;;;7.77;100.00
19236;BME280;9752;54.270;12.470;2024-03-02T18:05:35;101398.25;;;7.60;100.00
19236;BME280;9752;54.270;12.470;2024-03-02T18:10:37;101407.72;;;7.39;100.00
19236;BME280;9752;54.270;12.470;2024-03-02T18:15:39;101408.41;;;7.16;100.00
19236;BME280;9752;54.270;12.470;2024-03-02T18:20:42;101419.91;;;7.10;100.00
19236;BME280;9752;54.270;12.470;2024-03-02T18:25:45;101428.81;;;6.93;100.00
19236;BME280;9752;54.270;12.470;2024-03-02T18:30:47;101440.00;;;6.93;100.00
19236;BME280;9752;54.270;12.470;2024-03-02T18:35:50;101449.41;;;6.82;100.00
19236;BME280;9752;54.270;12.470;2024-03-02T18:40:52;101462.16;;;6.71;100.00
19236;BME280;9752;54.270;12.470;2024-03-02T18:45:53;101467.53;;;6.53;100.00
19236;BME280;9752;54.270;12.470;2024-03-02T18:50:57;101472.16;;;6.47;100.00
19236;BME280;9752;54.270;12.470;2024-03-02T18:55:58;101474.75;;;6.68;100.00
19236;BME280;9752;54.270;12.470;2024-03-02T19:01:00;101496.94;;;6.65;100.00
19236;BME280;9752;54.270;12.470;2024-03-02T19:06:03;101491.91;;;6.57;100.00
19236;BME280;9752;54.270;12.470;2024-03-02T19:11:12;101495.34;;;6.47;100.00
19236;BME280;9752;54.270;12.470;2024-03-02T19:16:15;101496.28;;;6.29;100.00
19236;BME280;9752;54.270;12.470;2024-03-02T19:21:18;101509.09;;;6.18;100.00
19236;BME280;9752;54.270;12.470;2024-03-02T19:26:20;101508.56;;;6.12;100.00
19236;BME280;9752;54.270;12.470;2024-03-02T19:31:21;101507.53;;;6.10;100.00
19236;BME280;9752;54.270;12.470;2024-03-02T19:36:24;101516.09;;;6.19;100.00
19236;BME280;9752;54.270;12.470;2024-03-02T19:41:26;101517.31;;;6.14;100.00
19236;BME280;9752;54.270;12.470;2024-03-02T19:46:28;101520.69;;;6.13;100.00
19236;BME280;9752;54.270;12.470;2024-03-02T19:51:31;101537.19;;;6.15;100.00
19236;BME280;9752;54.270;12.470;2024-03-02T19:56:33;101540.22;;;6.30;100.00
19236;BME280;9752;54.270;12.470;2024-03-02T20:01:35;101552.00;;;6.18;100.00
19236;BME280;9752;54.270;12.470;2024-03-02T20:06:38;101546.00;;;6.09;100.00
19236;BME280;9752;54.270;12.470;2024-03-02T20:11:40;101541.78;;;6.09;100.00
19236;BME280;9752;54.270;12.470;2024-03-02T20:16:42;101552.31;;;6.02;100.00
19236;BME280;9752;54.270;12.470;2024-03-02T20:21:46;101549.91;;;5.95;100.00
19236;BME280;9752;54.270;12.470;2024-03-02T20:26:47;101546.47;;;5.85;100.00
19236;BME280;9752;54.270;12.470;2024-03-02T20:31:49;101546.22;;;5.82;100.00
19236;BME280;9752;54.270;12.470;2024-03-02T20:36:52;101558.81;;;5.79;100.00
19236;BME280;9752;54.270;12.470;2024-03-02T20:41:54;101560.75;;;5.82;100.00
19236;BME280;9752;54.270;12.470;2024-03-02T20:46:55;101563.91;;;5.88;100.00
19236;BME280;9752;54.270;12.470;2024-03-02T20:51:58;101573.56;;;5.91;100.00
19236;BME280;9752;54.270;12.470;2024-03-02T20:57:01;101582.03;;;5.90;100.00
19236;BME280;9752;54.270;12.470;2024-03-02T21:02:06;101587.06;;;5.88;100.00
19236;BME280;9752;54.270;12.470;2024-03-02T21:07:09;101596.19;;;5.84;100.00
19236;BME280;9752;54.270;12.470;2024-03-02T21:12:10;101595.00;;;5.81;100.00
19236;BME280;9752;54.270;12.470;2024-03-02T21:17:12;101604.03;;;5.86;100.00
19236;BME280;9752;54.270;12.470;2024-03-02T21:22:15;101613.22;;;5.93;100.00
19236;BME280;9752;54.270;12.470;2024-03-02T21:27:17;101628.22;;;5.97;100.00
19236;BME280;9752;54.270;12.470;2024-03-02T21:32:19;101621.84;;;5.93;100.00
19236;BME280;9752;54.270;12.470;2024-03-02T21:37:22;101624.75;;;5.96;100.00
19236;BME280;9752;54.270;12.470;2024-03-02T21:42:23;101633.53;;;5.98;100.00
19236;BME280;9752;54.270;12.470;2024-03-02T21:47:25;101635.19;;;5.98;100.00
19236;BME280;9752;54.270;12.470;2024-03-02T21:52:28;101642.28;;;6.00;100.00
19236;BME280;9752;54.270;12.470;2024-03-02T21:57:30;101647.09;;;6.06;100.00
19236;BME280;9752;54.270;12.470;2024-03-02T22:02:31;101649.97;;;6.09;100.00
19236;BME280;9752;54.270;12.470;2024-03-02T22:07:34;101655.88;;;6.08;100.00
19236;BME280;9752;54.270;12.470;2024-03-02T22:12:36;101662.59;;;5.97;100.00
19236;BME280;9752;54.270;12.470;2024-03-02T22:17:38;101668.03;;;5.92;100.00
19236;BME280;9752;54.270;12.470;2024-03-02T22:22:41;101672.31;;;5.91;100.00
19236;BME280;9752;54.270;12.470;2024-03-02T22:27:43;101676.00;;;5.84;100.00
19236;BME280;9752;54.270;12.470;2024-03-02T22:32:44;101674.94;;;5.82;100.00
19236;BME280;9752;54.270;12.470;2024-03-02T22:37:47;101677.78;;;5.85;100.00
19236;BME280;9752;54.270;12.470;2024-03-02T22:42:49;101681.69;;;5.91;100.00
19236;BME280;9752;54.270;12.470;2024-03-02T22:47:51;101677.31;;;5.90;100.00
19236;BME280;9752;54.270;12.470;2024-03-02T22:52:56;101690.72;;;6.04;100.00
19236;BME280;9752;54.270;12.470;2024-03-02T22:57:58;101698.59;;;6.06;100.00
19236;BME280;9752;54.270;12.470;2024-03-02T23:03:00;101700.13;;;6.04;100.00
19236;BME280;9752;54.270;12.470;2024-03-02T23:08:05;101714.34;;;6.09;100.00
19236;BME280;9752;54.270;12.470;2024-03-02T23:13:07;101705.50;;;6.16;100.00
19236;BME280;9752;54.270;12.470;2024-03-02T23:18:08;101712.81;;;6.11;100.00
19236;BME280;9752;54.270;12.470;2024-03-02T23:23:11;101709.47;;;6.12;100.00
19236;BME280;9752;54.270;12.470;2024-03-02T23:28:13;101712.84;;;6.30;100.00
19236;BME280;9752;54.270;12.470;2024-03-02T23:33:15;101716.28;;;6.39;100.00
19236;BME280;9752;54.270;12.470;2024-03-02T23:38:18;101728.31;;;6.49;100.00
19236;BME280;9752;54.270;12.470;2024-03-02T23:43:20;101726.09;;;6.43;100.00
19236;BME280;9752;54.270;12.470;2024-03-02T23:48:21;101726.66;;;6.50;100.00
19236;BME280;9752;54.270;12.470;2024-03-02T23:53:24;101737.16;;;6.61;100.00
19236;BME280;9752;54.270;12.470;2024-03-02T23:58:26;101742.97;;;6.78;100.00
